Time;durP1;ratioP1;P1;durP2;ratioP2;P2;SDS_P1;SDS_P2;PMS_P1;PMS_P2;Temp;Humidity;BMP_temperature;BMP_pressure;BME280_temperature;BME280_humidity;BME280_pressure;Samples;Min_cycle;Max_cycle;Signal;HPM_P1;HPM_P2
2022/08/30 00:01:01;;;;;;;14.27;6.45;;;;;;;13.87;90.64;98598.91;5083605;28;20021;-68
2022/08/30 00:03:28;;;;;;;11.05;5.70;;;;;;;13.94;91.16;98611.00;5083511;28;20329;-68
2022/08/30 00:05:54;;;;;;;11.70;5.70;;;;;;;13.98;91.36;98597.63;5083836;28;20051;-68
2022/08/30 00:08:19;;;;;;;18.55;7.43;;;;;;;13.95;91.14;98607.47;5087103;28;20036;-68
2022/08/30 00:10:45;;;;;;;12.45;6.07;;;;;;;13.88;91.19;98608.56;5086962;28;20247;-68
2022/08/30 00:13:12;;;;;;;13.57;6.38;;;;;;;13.75;90.21;98610.75;5087347;28;20076;-68
2022/08/30 00:15:41;;;;;;;14.63;6.50;;;;;;;13.75;90.94;98610.75;5087076;28;20051;-68
2022/08/30 00:18:07;;;;;;;11.43;5.93;;;;;;;13.75;91.46;98610.75;5087052;28;20020;-68
2022/08/30 00:20:35;;;;;;;13.25;6.20;;;;;;;13.59;91.12;98603.34;5087045;28;20201;-68
2022/08/30 00:23:01;;;;;;;15.30;6.47;;;;;;;13.65;91.29;98613.75;5087005;28;20030;-68
2022/08/30 00:25:27;;;;;;;15.02;6.68;;;;;;;13.72;91.42;98610.84;5086971;28;20025;-68
2022/08/30 00:27:52;;;;;;;12.40;5.93;;;;;;;13.74;91.49;98616.09;5086784;28;20055;-68
2022/08/30 00:30:19;;;;;;;12.57;5.40;;;;;;;13.55;90.07;98613.19;5086778;28;20032;-68
2022/08/30 00:32:45;;;;;;;14.65;6.18;;;;;;;13.59;91.71;98609.50;5086588;28;20031;-68
2022/08/30 00:35:13;;;;;;;14.68;6.50;;;;;;;13.54;91.80;98610.59;5086710;28;20025;-68
2022/08/30 00:37:39;;;;;;;16.33;6.00;;;;;;;13.31;91.82;98610.41;5086691;28;20028;-68
2022/08/30 00:40:05;;;;;;;12.32;6.65;;;;;;;13.30;92.78;98606.03;5086560;28;20178;-68
2022/08/30 00:42:32;;;;;;;16.48;6.35;;;;;;;13.25;92.62;98602.69;5086544;28;20016;-68
2022/08/30 00:44:59;;;;;;;11.02;6.05;;;;;;;13.30;91.83;98598.13;5086680;28;20065;-68
2022/08/30 00:47:24;;;;;;;14.82;5.35;;;;;;;13.27;91.47;98600.84;5086514;28;20030;-68
2022/08/30 00:49:54;;;;;;;17.42;5.68;;;;;;;13.25;91.80;98598.25;5087005;28;20020;-68
2022/08/30 00:52:22;;;;;;;8.65;5.63;;;;;;;13.37;91.86;98602.28;5086647;28;20040;-68
2022/08/30 00:54:50;;;;;;;12.70;5.85;;;;;;;13.38;91.62;98604.03;5086654;28;20028;-68
2022/08/30 00:57:16;;;;;;;11.60;5.93;;;;;;;13.27;91.53;98608.78;5086566;28;20027;-68
2022/08/30 00:59:45;;;;;;;14.68;6.00;;;;;;;13.24;91.86;98599.16;5086198;28;20024;-68
2022/08/30 01:02:11;;;;;;;16.60;5.93;;;;;;;13.28;92.00;98603.44;5086354;28;20024;-68
2022/08/30 01:04:39;;;;;;;9.93;5.40;;;;;;;13.34;91.63;98607.66;5086619;28;20020;-68
2022/08/30 01:07:07;;;;;;;9.25;5.18;;;;;;;13.39;91.31;98611.06;5086179;28;20016;-68
2022/08/30 01:09:32;;;;;;;13.65;5.80;;;;;;;13.39;91.52;98611.94;5085781;28;20033;-68
2022/08/30 01:11:58;;;;;;;8.75;5.45;;;;;;;13.45;91.70;98616.16;5085941;28;20035;-68
2022/08/30 01:14:23;;;;;;;16.33;5.40;;;;;;;13.45;91.31;98617.00;5085853;28;20032;-68
2022/08/30 01:16:49;;;;;;;10.18;5.57;;;;;;;13.37;91.07;98618.16;5086034;28;20044;-68
2022/08/30 01:19:38;;;;;;;13.30;5.90;;;;;;;13.22;91.65;98613.34;5084760;28;20024;-68
2022/08/30 01:22:31;;;;;;;15.07;5.90;;;;;;;13.21;92.10;98601.03;5085904;28;20016;-68
2022/08/30 01:24:57;;;;;;;;;;;;;;;13.19;91.88;98597.59;5086335;28;20024;-68
2022/08/30 01:27:25;;;;;;;15.18;5.78;;;;;;;13.16;92.72;98592.38;5085798;28;19909;-68
2022/08/30 01:29:51;;;;;;;10.88;5.50;;;;;;;13.26;92.34;98599.13;5085609;28;20025;-68
2022/08/30 01:32:19;;;;;;;14.05;4.82;;;;;;;13.32;92.12;98601.59;5085624;28;20046;-68
2022/08/30 01:34:48;;;;;;;14.07;5.60;;;;;;;13.31;91.85;98603.34;5085772;28;20219;-68
2022/08/30 01:37:23;;;;;;;15.65;6.65;;;;;;;13.29;91.99;98599.88;5085431;28;20032;-68
2022/08/30 01:39:48;;;;;;;14.57;5.38;;;;;;;13.10;92.13;98598.69;5085547;28;20065;-68
2022/08/30 01:42:16;;;;;;;10.88;5.72;;;;;;;13.13;92.41;98600.41;5085363;28;20258;-68
2022/08/30 01:44:43;;;;;;;11.40;6.13;;;;;;;13.13;92.46;98610.97;5085476;28;20087;-68
2022/08/30 01:47:09;;;;;;;12.90;5.93;;;;;;;13.07;92.50;98605.88;5085438;28;20087;-68
2022/08/30 01:49:34;;;;;;;10.52;5.60;;;;;;;13.11;92.75;98610.16;5085415;28;20020;-68
2022/08/30 01:52:00;;;;;;;8.52;4.95;;;;;;;13.09;92.25;98602.25;5085156;28;20031;-68
2022/08/30 01:54:25;;;;;;;11.43;5.15;;;;;;;13.09;92.27;98602.25;5085429;28;20048;-68
2022/08/30 01:56:51;;;;;;;13.25;5.88;;;;;;;13.02;92.51;98600.72;5085040;28;20029;-68
2022/08/30 01:59:16;;;;;;;9.10;5.20;;;;;;;13.00;92.35;98598.13;5085019;28;20051;-68
2022/08/30 02:01:42;;;;;;;8.95;5.30;;;;;;;13.03;92.65;98603.31;5085364;28;20016;-68
2022/08/30 02:04:08;;;;;;;11.07;5.18;;;;;;;12.97;92.77;98597.31;5084860;28;20091;-68
2022/08/30 02:06:36;;;;;;;12.45;5.25;;;;;;;12.96;93.20;98596.47;5085043;28;20047;-68
2022/08/30 02:09:01;;;;;;;10.68;5.50;;;;;;;12.97;92.82;98602.59;5084791;28;20050;-68
2022/08/30 02:11:26;;;;;;;8.57;5.28;;;;;;;12.93;92.82;98596.53;5085167;28;20040;-68
2022/08/30 02:13:52;;;;;;;13.18;6.00;;;;;;;12.93;92.86;98588.63;5085343;28;20044;-68
2022/08/30 02:16:21;;;;;;;10.18;5.45;;;;;;;12.95;93.51;98596.50;5085041;28;20320;-68
2022/08/30 02:18:48;;;;;;;12.57;6.30;;;;;;;12.91;93.56;98593.06;5085133;28;20020;-68
2022/08/30 02:21:14;;;;;;;12.85;5.80;;;;;;;12.90;93.79;98591.34;5084919;28;20017;-68
2022/08/30 02:23:40;;;;;;;16.92;5.80;;;;;;;12.88;93.81;98603.72;5084977;28;20192;-68
2022/08/30 02:26:05;;;;;;;13.07;5.85;;;;;;;12.88;93.56;98609.00;5084737;28;20020;-68
2022/08/30 02:28:31;;;;;;;11.20;5.40;;;;;;;12.84;93.68;98607.38;5084846;28;20050;-68
2022/08/30 02:30:56;;;;;;;11.82;5.40;;;;;;;12.76;93.56;98609.34;5084520;28;20032;-68
2022/08/30 02:33:22;;;;;;;16.42;5.63;;;;;;;12.63;93.05;98600.03;5084744;28;20024;-68
2022/08/30 02:35:47;;;;;;;10.63;5.40;;;;;;;12.53;92.97;98590.66;5084651;28;20315;-68
2022/08/30 02:38:13;;;;;;;8.95;5.03;;;;;;;12.48;93.94;98587.28;5084667;28;20370;-68
2022/08/30 02:40:38;;;;;;;10.90;5.38;;;;;;;12.49;94.30;98589.00;5084151;28;20029;-68
2022/08/30 02:43:04;;;;;;;18.40;7.15;;;;;;;12.40;94.80;98578.69;5084187;28;20028;-68
2022/08/30 02:45:29;;;;;;;13.73;5.53;;;;;;;12.50;94.95;98585.47;5084365;28;20026;-68
2022/08/30 02:47:57;;;;;;;13.43;5.70;;;;;;;12.45;94.54;98584.75;5084192;28;20020;-68
2022/08/30 02:50:24;;;;;;;11.55;5.78;;;;;;;12.45;94.53;98587.38;5084038;28;20342;-68
2022/08/30 02:52:50;;;;;;;8.93;4.88;;;;;;;12.35;94.50;98583.25;5084063;28;20043;-68
2022/08/30 02:55:16;;;;;;;15.50;5.22;;;;;;;12.43;95.06;98577.75;5084024;28;20027;-68
2022/08/30 02:57:43;;;;;;;15.93;5.65;;;;;;;12.46;94.68;98578.53;5084157;28;20061;-68
2022/08/30 03:00:11;;;;;;;12.77;5.43;;;;;;;12.37;94.82;98572.66;5083986;28;20021;-68
2022/08/30 03:02:37;;;;;;;9.30;5.60;;;;;;;12.49;95.09;98578.47;5084122;28;20016;-68
2022/08/30 03:05:04;;;;;;;9.65;5.07;;;;;;;12.48;94.21;98579.38;5083996;28;20067;-68
2022/08/30 03:07:29;;;;;;;10.95;5.47;;;;;;;12.45;93.93;98573.31;5083737;28;20024;-68
2022/08/30 03:09:55;;;;;;;10.77;5.03;;;;;;;12.24;93.48;98571.22;5083711;28;20041;-68
2022/08/30 03:12:20;;;;;;;11.93;5.35;;;;;;;12.04;94.20;98569.16;5083958;28;20243;-68
2022/08/30 03:14:47;;;;;;;12.95;5.43;;;;;;;11.95;95.95;98569.38;5084139;28;20027;-68
2022/08/30 03:17:12;;;;;;;11.73;5.60;;;;;;;12.00;96.06;98570.13;5084023;28;20023;-68
2022/08/30 03:19:37;;;;;;;15.80;5.28;;;;;;;12.07;96.02;98569.06;5083675;28;20323;-68
2022/08/30 03:22:04;;;;;;;10.93;5.45;;;;;;;12.09;95.19;98575.16;5083851;28;20020;-68
2022/08/30 03:24:30;;;;;;;14.93;5.78;;;;;;;12.03;95.33;98567.41;5083633;28;20159;-68
2022/08/30 03:26:56;;;;;;;9.35;5.10;;;;;;;12.05;95.75;98576.16;5083737;28;20028;-68
2022/08/30 03:29:21;;;;;;;12.88;5.53;;;;;;;12.09;95.71;98569.03;5083505;28;20032;-68
2022/08/30 03:31:47;;;;;;;12.00;5.40;;;;;;;12.09;95.40;98572.50;5083589;28;20342;-68
2022/08/30 03:34:13;;;;;;;10.63;5.07;;;;;;;12.10;95.54;98569.00;5083624;28;20023;-68
2022/08/30 03:36:38;;;;;;;9.65;5.05;;;;;;;12.05;95.58;98570.88;5083528;28;20024;-68
2022/08/30 03:39:05;;;;;;;12.77;5.10;;;;;;;12.06;95.67;98561.19;5083633;28;20030;-68
2022/08/30 03:41:31;;;;;;;9.88;5.03;;;;;;;11.96;94.76;98575.53;5085103;28;20051;-68
2022/08/30 03:43:57;;;;;;;10.15;5.75;;;;;;;12.00;95.13;98572.78;5087528;28;20036;-68
2022/08/30 03:46:22;;;;;;;14.45;5.75;;;;;;;11.92;95.37;98577.38;5087754;28;20032;-68
2022/08/30 03:48:48;;;;;;;15.65;5.47;;;;;;;11.84;95.43;98574.06;5087818;28;20319;-68
2022/08/30 03:51:13;;;;;;;9.63;5.18;;;;;;;11.77;95.47;98569.84;5087881;28;20061;-68
2022/08/30 03:53:39;;;;;;;10.30;5.18;;;;;;;11.73;95.88;98568.19;5087909;28;20027;-68
2022/08/30 03:56:04;;;;;;;10.07;5.55;;;;;;;11.79;96.25;98575.06;5087717;28;20016;-68
2022/08/30 03:58:30;;;;;;;12.93;6.25;;;;;;;11.82;97.02;98578.50;5087513;28;20111;-68
2022/08/30 04:00:55;;;;;;;15.63;5.22;;;;;;;11.82;97.01;98578.50;5083053;28;20089;-68
2022/08/30 04:03:24;;;;;;;13.27;5.55;;;;;;;11.83;96.38;98569.69;5087393;28;20095;-68
2022/08/30 04:05:53;;;;;;;14.48;5.78;;;;;;;11.82;96.70;98567.97;5087241;28;20032;-68
2022/08/30 04:08:19;;;;;;;11.45;5.28;;;;;;;11.82;96.70;98578.50;5087275;28;20028;-68
2022/08/30 04:10:46;;;;;;;10.30;5.18;;;;;;;11.79;96.39;98570.69;5087287;28;20059;-68
2022/08/30 04:13:14;;;;;;;13.45;5.25;;;;;;;11.68;96.13;98558.66;5087729;28;20016;-68
2022/08/30 04:15:40;;;;;;;10.30;5.07;;;;;;;11.74;96.71;98562.00;5087422;28;20347;-68
2022/08/30 04:18:06;;;;;;;12.02;5.70;;;;;;;11.71;96.47;98558.59;5087418;28;20035;-68
2022/08/30 04:20:31;;;;;;;13.23;5.15;;;;;;;11.59;95.65;98554.47;5087375;28;20074;-68
2022/08/30 04:22:57;;;;;;;14.00;5.88;;;;;;;11.55;95.65;98552.78;5087299;28;20041;-68
2022/08/30 04:25:22;;;;;;;10.82;6.45;;;;;;;11.61;96.50;98560.53;5087240;28;20031;-68
2022/08/30 04:27:48;;;;;;;11.13;5.05;;;;;;;11.53;96.41;98575.69;5087162;28;20016;-68
2022/08/30 04:30:15;;;;;;;7.97;5.25;;;;;;;11.61;97.22;98568.44;5087196;28;20069;-68
2022/08/30 04:32:41;;;;;;;8.63;4.95;;;;;;;11.58;96.44;98571.16;5087028;28;20087;-68
2022/08/30 04:35:06;;;;;;;10.90;5.13;;;;;;;11.58;96.28;98578.22;5087004;28;20265;-68
2022/08/30 04:37:32;;;;;;;10.70;5.30;;;;;;;11.58;96.82;98579.06;5087070;28;20228;-68
2022/08/30 04:40:01;;;;;;;13.13;5.43;;;;;;;11.59;96.43;98594.00;5086912;28;20020;-68
2022/08/30 04:42:30;;;;;;;12.65;5.13;;;;;;;11.61;96.37;98592.19;5086976;28;20020;-68
2022/08/30 04:44:56;;;;;;;11.30;5.25;;;;;;;11.66;96.68;98595.63;5087140;28;20238;-68
2022/08/30 04:47:21;;;;;;;11.20;4.85;;;;;;;11.62;96.42;98596.59;5086818;28;20027;-68
2022/08/30 04:49:46;;;;;;;10.35;5.47;;;;;;;11.48;96.20;98593.38;5086812;28;20096;-68
2022/08/30 04:52:12;;;;;;;10.10;5.45;;;;;;;11.37;97.68;98595.41;5086673;28;20035;-68
2022/08/30 04:54:37;;;;;;;11.25;5.88;;;;;;;11.45;98.14;98596.06;5086753;28;20366;-68
2022/08/30 04:57:05;;;;;;;14.38;6.07;;;;;;;11.50;97.64;98596.84;5086716;28;20031;-68
2022/08/30 04:59:30;;;;;;;18.95;5.93;;;;;;;11.57;97.44;98593.16;5086584;28;20020;-68
2022/08/30 05:01:56;;;;;;;11.38;5.18;;;;;;;11.50;97.21;98596.84;5086533;28;20311;-68
2022/08/30 05:04:21;;;;;;;10.70;5.28;;;;;;;11.61;96.92;98594.81;5086628;28;20032;-68
2022/08/30 05:06:48;;;;;;;15.75;5.25;;;;;;;11.63;96.67;98593.06;5086810;28;20087;-68
2022/08/30 05:09:13;;;;;;;16.13;6.05;;;;;;;11.64;96.85;98589.50;5086346;28;20041;-68
2022/08/30 05:11:39;;;;;;;7.88;4.85;;;;;;;11.72;95.98;98586.69;5086584;28;20028;-68
2022/08/30 05:14:04;;;;;;;9.20;5.13;;;;;;;11.77;96.16;98592.72;5086583;28;20020;-68
2022/08/30 05:16:30;;;;;;;10.85;5.60;;;;;;;11.86;95.26;98590.72;5086395;28;20086;-68
2022/08/30 05:18:55;;;;;;;10.60;4.75;;;;;;;11.87;95.12;98596.84;5086266;28;20028;-68
2022/08/30 05:21:26;;;;;;;11.57;5.07;;;;;;;11.99;94.90;98602.69;5086303;28;20020;-68
2022/08/30 05:23:54;;;;;;;10.80;4.97;;;;;;;12.04;94.79;98595.53;5086305;28;20078;-68
2022/08/30 05:26:26;;;;;;;8.77;5.30;;;;;;;12.11;94.79;98607.66;5086181;28;20020;-68
2022/08/30 05:28:52;;;;;;;7.32;4.65;;;;;;;12.32;93.69;98612.38;5086196;28;20339;-68
2022/08/30 05:31:24;;;;;;;11.55;5.55;;;;;;;12.87;91.99;98616.97;5085969;28;20036;-68
2022/08/30 05:33:52;;;;;;;8.88;4.57;;;;;;;13.27;89.58;98622.88;5086015;28;20028;-68
2022/08/30 05:36:20;;;;;;;12.05;5.20;;;;;;;13.71;87.88;98624.13;5085930;28;20353;-68
2022/08/30 05:38:45;;;;;;;6.00;4.22;;;;;;;14.36;85.64;98630.75;5085870;28;20228;-68
2022/08/30 05:41:11;;;;;;;11.88;4.35;;;;;;;15.17;81.68;98622.50;5085872;28;20024;-68
2022/08/30 05:43:37;;;;;;;13.10;4.57;;;;;;;15.72;78.59;98627.41;5085762;28;20028;-68
2022/08/30 05:46:06;;;;;;;9.00;3.80;;;;;;;16.43;76.67;98635.09;5085695;28;20051;-68
2022/08/30 05:48:32;;;;;;;12.93;4.45;;;;;;;16.79;75.27;98637.03;5085730;28;20024;-68
2022/08/30 05:51:10;;;;;;;11.52;4.20;;;;;;;17.30;73.28;98638.28;5085456;28;20028;-68
2022/08/30 05:53:36;;;;;;;14.55;4.78;;;;;;;17.81;71.20;98633.22;5085667;28;20047;-68
2022/08/30 05:56:04;;;;;;;7.63;4.05;;;;;;;18.45;69.27;98634.44;5085542;28;20024;-68
2022/08/30 05:58:30;;;;;;;8.43;3.88;;;;;;;18.97;67.61;98630.78;5085453;28;20017;-68
2022/08/30 06:00:56;;;;;;;6.10;3.53;;;;;;;19.36;65.08;98619.81;5085369;28;20031;-68
2022/08/30 06:03:22;;;;;;;10.48;4.25;;;;;;;19.39;64.32;98622.31;5085337;28;20062;-68
2022/08/30 06:05:47;;;;;;;10.95;4.38;;;;;;;19.75;63.78;98629.16;5083711;28;20092;-68
2022/08/30 06:08:12;;;;;;;7.90;4.10;;;;;;;19.87;62.53;98631.13;5085347;28;20024;-68
2022/08/30 06:10:38;;;;;;;10.88;3.60;;;;;;;20.39;61.41;98627.22;5085037;28;20064;-68
2022/08/30 06:13:03;;;;;;;9.45;3.50;;;;;;;20.92;59.99;98632.88;5085416;28;20025;-68
2022/08/30 06:15:29;;;;;;;9.35;3.92;;;;;;;21.42;59.21;98634.28;5085090;28;20027;-68
2022/08/30 06:17:55;;;;;;;7.95;4.10;;;;;;;21.76;58.04;98633.91;5085362;28;20020;-68
2022/08/30 06:20:20;;;;;;;8.27;3.90;;;;;;;22.15;57.56;98639.34;5085295;28;20366;-68
2022/08/30 06:22:45;;;;;;;10.05;3.88;;;;;;;22.37;56.93;98635.13;5084975;28;20021;-68
2022/08/30 06:25:11;;;;;;;11.07;4.57;;;;;;;22.55;56.47;98631.25;5084976;28;20138;-68
2022/08/30 06:27:37;;;;;;;9.07;3.58;;;;;;;22.84;55.62;98623.91;5084818;28;20031;-68
2022/08/30 06:30:07;;;;;;;9.07;3.80;;;;;;;23.15;55.35;98626.19;5084941;28;20051;-68
2022/08/30 06:32:33;;;;;;;13.38;4.38;;;;;;;23.73;54.57;98636.38;5084984;28;20334;-69
2022/08/30 06:34:58;;;;;;;8.02;4.15;;;;;;;24.00;54.28;98637.94;5084765;28;20029;-69
2022/08/30 06:37:24;;;;;;;11.18;4.70;;;;;;;23.58;53.79;98626.72;5084736;28;20020;-69
2022/08/30 06:39:49;;;;;;;10.45;3.85;;;;;;;23.46;54.27;98628.47;5084663;28;20027;-69
2022/08/30 06:42:14;;;;;;;11.35;4.15;;;;;;;22.91;56.29;98633.28;5084623;28;20084;-69
2022/08/30 06:44:40;;;;;;;11.27;4.53;;;;;;;22.86;56.56;98633.59;5084573;28;20020;-69
2022/08/30 06:47:06;;;;;;;11.10;4.10;;;;;;;22.35;58.81;98626.34;5084624;28;20020;-69
2022/08/30 06:49:31;;;;;;;17.17;4.75;;;;;;;22.34;59.20;98637.19;5084773;28;20024;-69
2022/08/30 06:51:57;;;;;;;9.18;3.70;;;;;;;23.20;57.75;98640.16;5084425;28;20088;-69
2022/08/30 06:54:22;;;;;;;10.93;5.00;;;;;;;24.13;55.69;98646.81;5084479;28;20035;-69
2022/08/30 06:56:47;;;;;;;11.48;3.97;;;;;;;24.84;53.85;98654.91;5084382;28;20024;-69
2022/08/30 06:59:13;;;;;;;9.95;4.10;;;;;;;24.48;55.49;98645.06;5084352;28;20020;-69
2022/08/30 07:01:38;;;;;;;11.10;3.67;;;;;;;24.56;54.43;98650.72;5084425;28;20031;-69
2022/08/30 07:04:03;;;;;;;13.48;4.03;;;;;;;24.38;55.28;98652.09;5084357;28;20219;-69
2022/08/30 07:06:29;;;;;;;12.30;3.95;;;;;;;24.19;55.01;98645.50;5084261;28;20020;-69
2022/08/30 07:08:55;;;;;;;12.93;3.53;;;;;;;24.56;54.08;98645.34;5084070;28;20090;-69
2022/08/30 07:11:26;;;;;;;6.70;3.97;;;;;;;24.24;55.11;98644.22;5084400;28;20204;-69
2022/08/30 07:13:52;;;;;;;7.88;3.80;;;;;;;25.66;53.87;98669.06;5084234;28;20250;-69
2022/08/30 07:16:17;;;;;;;11.68;3.95;;;;;;;26.73;47.76;98665.56;5083353;28;20027;-69
2022/08/30 07:18:53;;;;;;;10.15;3.97;;;;;;;27.65;49.00;98674.63;5084125;28;20020;-69
2022/08/30 07:21:28;;;;;;;9.85;4.60;;;;;;;27.36;47.89;98656.56;5084064;28;20016;-69
2022/08/30 07:23:56;;;;;;;17.27;4.13;;;;;;;27.74;46.88;98659.47;5084065;28;20039;-69
2022/08/30 07:26:28;;;;;;;11.55;4.32;;;;;;;28.71;41.74;98653.22;5083932;28;20032;-69
2022/08/30 07:28:54;;;;;;;9.75;3.80;;;;;;;28.82;39.97;98644.09;5084034;28;20016;-69
2022/08/30 07:31:20;;;;;;;8.80;3.75;;;;;;;29.42;39.96;98654.59;5084151;28;20058;-69
2022/08/30 07:33:46;;;;;;;10.30;4.20;;;;;;;29.18;39.11;98649.66;5083970;28;20080;-69
2022/08/30 07:36:12;;;;;;;20.35;4.15;;;;;;;29.50;39.96;98645.72;5083923;28;20047;-69
2022/08/30 07:38:37;;;;;;;13.32;3.97;;;;;;;29.33;40.28;98643.78;5084208;28;20028;-69
2022/08/30 07:41:04;;;;;;;11.55;4.50;;;;;;;28.04;41.01;98638.69;5084002;28;20324;-69
2022/08/30 07:43:32;;;;;;;11.80;4.18;;;;;;;27.70;41.74;98639.94;5083820;28;20016;-69
2022/08/30 07:46:06;;;;;;;11.00;4.80;;;;;;;28.14;41.70;98641.41;5083903;28;20028;-69
2022/08/30 07:48:31;;;;;;;9.65;4.00;;;;;;;27.55;41.80;98644.00;5083804;28;20074;-69
2022/08/30 07:50:57;;;;;;;19.10;4.38;;;;;;;28.01;43.05;98638.09;5083733;28;20087;-69
2022/08/30 07:53:23;;;;;;;14.98;4.57;;;;;;;27.83;42.61;98637.00;5083833;28;20020;-69
2022/08/30 07:55:48;;;;;;;9.82;4.30;;;;;;;26.93;44.26;98633.19;5083725;28;20016;-69
2022/08/30 07:58:13;;;;;;;13.25;4.22;;;;;;;27.09;44.35;98627.34;5083788;28;20032;-69
2022/08/30 08:00:39;;;;;;;9.88;4.05;;;;;;;27.41;43.84;98636.25;5083885;28;20020;-69
2022/08/30 08:03:07;;;;;;;9.70;4.25;;;;;;;27.99;44.52;98640.94;5083674;28;20254;-69
2022/08/30 08:05:40;;;;;;;12.95;4.43;;;;;;;27.97;43.90;98633.97;5083644;28;20024;-69
2022/08/30 08:08:05;;;;;;;10.02;4.28;;;;;;;28.02;42.07;98643.38;5083771;28;20031;-69
2022/08/30 08:10:31;;;;;;;11.98;4.68;;;;;;;27.93;42.35;98637.94;5083502;28;20045;-69
2022/08/30 08:12:57;;;;;;;16.48;5.07;;;;;;;28.35;42.51;98645.72;5083664;28;20221;-69
2022/08/30 08:15:22;;;;;;;13.07;4.40;;;;;;;28.78;42.26;98646.22;5083587;28;20045;-69
2022/08/30 08:17:47;;;;;;;9.48;4.85;;;;;;;29.09;40.41;98652.38;5083560;28;20027;-69
2022/08/30 08:20:13;;;;;;;14.98;4.85;;;;;;;30.06;40.68;98673.69;5083569;28;20024;-69
2022/08/30 08:22:38;;;;;;;9.43;4.68;;;;;;;30.31;39.45;98664.88;5083582;28;20023;-69
2022/08/30 08:25:04;;;;;;;10.90;4.78;;;;;;;30.29;39.27;98656.00;5083546;28;20091;-69
2022/08/30 08:27:29;;;;;;;9.35;4.45;;;;;;;30.61;38.65;98656.38;5084560;28;20020;-69
2022/08/30 08:29:55;;;;;;;12.70;4.75;;;;;;;30.38;38.86;98655.09;5087245;28;20051;-69
2022/08/30 08:32:20;;;;;;;18.35;5.38;;;;;;;30.84;38.32;98660.34;5087056;28;20023;-69
2022/08/30 08:34:45;;;;;;;17.23;5.03;;;;;;;30.23;39.36;98651.19;5087154;28;20024;-69
2022/08/30 08:37:11;;;;;;;9.40;4.50;;;;;;;30.18;39.40;98653.50;5087073;28;20020;-69
2022/08/30 08:39:36;;;;;;;11.93;5.20;;;;;;;30.35;39.09;98649.97;5087031;28;20021;-69
2022/08/30 08:42:14;;;;;;;9.77;4.70;;;;;;;30.73;39.74;98649.72;5086962;28;20024;-69
2022/08/30 08:44:51;;;;;;;15.27;5.18;;;;;;;30.71;38.78;98649.00;5086928;28;20085;-69
2022/08/30 08:47:36;;;;;;;11.15;5.50;;;;;;;31.44;37.99;98650.53;5086859;28;20035;-69
2022/08/30 08:50:07;;;;;;;7.47;4.80;;;;;;;31.19;37.60;98641.28;5086831;28;20024;-69
2022/08/30 08:55:31;;;;;;;9.52;5.22;;;;;;;31.71;38.12;98653.94;5086736;28;20032;-69
2022/08/30 08:57:57;;;;;;;12.60;5.90;;;;;;;31.80;37.13;98642.09;5086709;28;20031;-69
2022/08/30 09:00:23;;;;;;;13.05;5.60;;;;;;;31.70;37.84;98644.06;5086614;28;20067;-69
2022/08/30 09:03:03;;;;;;;10.65;5.47;;;;;;;32.44;35.97;98630.66;5086632;28;20024;-69
2022/08/30 09:05:35;;;;;;;10.75;5.10;;;;;;;33.08;36.26;98640.84;5086806;28;20020;-69
2022/08/30 09:08:04;;;;;;;13.00;6.05;;;;;;;32.27;36.54;98640.59;5086490;28;20087;-69
2022/08/30 09:10:32;;;;;;;11.75;5.70;;;;;;;31.06;38.21;98628.13;5086314;28;20339;-69
2022/08/30 09:12:57;;;;;;;9.82;5.13;;;;;;;30.63;39.76;98627.19;5086651;28;20334;-69
2022/08/30 09:15:26;;;;;;;19.02;6.32;;;;;;;30.78;39.18;98631.13;5086315;28;20020;-69
2022/08/30 09:17:58;;;;;;;12.13;5.97;;;;;;;30.99;38.93;98623.47;5086323;28;20025;-69
2022/08/30 09:20:26;;;;;;;10.05;5.20;;;;;;;31.92;39.09;98627.19;5086291;28;20021;-69
2022/08/30 09:22:51;;;;;;;14.93;6.30;;;;;;;31.82;37.85;98629.19;5086216;28;20316;-69
2022/08/30 09:25:24;;;;;;;9.90;5.53;;;;;;;31.81;38.01;98622.03;5086214;28;20031;-69
2022/08/30 09:27:51;;;;;;;8.60;5.95;;;;;;;29.95;40.77;98609.59;5086525;28;20322;-69
2022/08/30 09:30:19;;;;;;;11.50;6.85;;;;;;;29.44;41.80;98608.34;5086464;28;20024;-69
2022/08/30 09:33:20;;;;;;;12.35;6.30;;;;;;;31.03;40.16;98619.41;5085940;28;20025;-69
2022/08/30 09:35:48;;;;;;;15.05;6.78;;;;;;;31.22;39.67;98613.78;5086009;28;20032;-69
2022/08/30 09:38:19;;;;;;;17.33;6.45;;;;;;;31.01;39.74;98599.69;5085838;28;20271;-69
2022/08/30 09:40:51;;;;;;;15.00;6.40;;;;;;;30.73;40.16;98595.38;5085454;28;20048;-69
2022/08/30 09:43:16;;;;;;;11.98;5.85;;;;;;;31.11;39.91;98605.88;5085978;28;20044;-69
2022/08/30 09:45:59;;;;;;;9.30;5.80;;;;;;;31.98;38.46;98618.38;5085775;28;20036;-69
2022/08/30 09:48:39;;;;;;;14.05;6.57;;;;;;;31.64;38.79;98597.59;5085729;28;20316;-69
2022/08/30 09:51:10;;;;;;;9.63;6.05;;;;;;;31.76;38.76;98601.75;5085566;28;20055;-69
2022/08/30 09:53:46;;;;;;;13.88;6.00;;;;;;;31.02;39.96;98582.38;5085952;28;20181;-69
2022/08/30 09:56:22;;;;;;;12.48;6.22;;;;;;;30.88;39.93;98588.38;5085648;28;20040;-69
2022/08/30 09:59:15;;;;;;;9.20;5.95;;;;;;;30.04;41.12;98576.09;5085956;28;20058;-69
2022/08/30 10:02:05;;;;;;;9.75;5.68;;;;;;;31.22;39.55;98594.75;5085516;28;20093;-69
2022/08/30 10:04:46;;;;;;;12.52;6.03;;;;;;;31.74;39.08;98599.19;5084491;28;20021;-69
2022/08/30 10:07:15;;;;;;;10.93;5.63;;;;;;;32.01;38.19;98585.38;5085385;28;20051;-69
2022/08/30 10:10:06;;;;;;;9.30;6.30;;;;;;;32.32;38.03;98597.38;5085244;28;20322;-69
2022/08/30 10:12:53;;;;;;;8.18;5.55;;;;;;;32.91;37.25;98604.53;5085157;28;20063;-69
2022/08/30 10:15:28;;;;;;;8.77;5.53;;;;;;;31.97;37.98;98581.28;5085223;28;20020;-69
2022/08/30 10:18:26;;;;;;;13.52;5.45;;;;;;;32.35;38.25;98575.28;5085153;28;20323;-69
2022/08/30 10:21:18;;;;;;;10.63;5.60;;;;;;;32.32;38.03;98582.91;5064454;28;20073;-69
2022/08/30 10:23:52;;;;;;;9.02;5.60;;;;;;;31.21;39.65;98563.13;5085094;28;20066;-69
2022/08/30 10:26:33;;;;;;;13.35;5.85;;;;;;;30.83;40.26;98552.66;5085012;28;20032;-69
2022/08/30 10:29:07;;;;;;;11.48;5.47;;;;;;;30.77;40.22;98553.28;5084962;28;20024;-69
2022/08/30 10:31:48;;;;;;;10.70;5.90;;;;;;;30.64;40.37;98552.81;5084892;28;20026;-69
2022/08/30 10:34:20;;;;;;;11.15;6.05;;;;;;;30.08;41.15;98566.63;5084970;28;20060;-69
2022/08/30 10:36:54;;;;;;;11.35;5.50;;;;;;;30.64;40.55;98560.94;5084928;28;20342;-69
2022/08/30 10:39:25;;;;;;;10.32;6.32;;;;;;;30.55;40.25;98559.16;5084895;28;20035;-69
2022/08/30 10:42:19;;;;;;;12.38;6.28;;;;;;;30.78;40.06;98555.84;5084917;28;20021;-69
2022/08/30 10:44:50;;;;;;;14.43;5.97;;;;;;;31.54;38.67;98569.66;5078932;28;20043;-69
2022/08/30 10:47:28;;;;;;;10.05;6.13;;;;;;;31.66;37.98;98563.75;5084923;28;20020;-69
2022/08/30 10:50:13;;;;;;;11.98;6.43;;;;;;;31.29;38.91;98556.91;5084696;28;20021;-69
2022/08/30 10:52:46;;;;;;;13.98;5.70;;;;;;;31.41;38.88;98553.75;5084596;28;20024;-69
2022/08/30 10:55:20;;;;;;;10.48;6.03;;;;;;;31.95;37.85;98561.50;5084737;28;20069;-69
2022/08/30 10:57:47;;;;;;;10.27;5.93;;;;;;;31.52;38.07;98548.03;5084495;28;20209;-69
2022/08/30 11:00:21;;;;;;;12.73;6.00;;;;;;;31.22;38.96;98556.66;5084383;28;20355;-69
2022/08/30 11:03:14;;;;;;;9.52;5.60;;;;;;;30.05;41.18;98538.97;5084476;28;20052;-69
2022/08/30 11:05:54;;;;;;;11.38;6.00;;;;;;;30.61;40.69;98543.09;5084480;28;20220;-69
2022/08/30 11:08:40;;;;;;;9.18;6.50;;;;;;;30.65;40.64;98536.34;5084462;28;20334;-69
2022/08/30 11:11:21;;;;;;;9.85;6.55;;;;;;;31.11;39.51;98546.06;5084189;28;20036;-69
2022/08/30 11:13:47;;;;;;;11.50;6.00;;;;;;;31.17;39.63;98542.72;5084244;28;20084;-69
2022/08/30 11:16:15;;;;;;;9.55;6.15;;;;;;;31.57;39.57;98542.13;5084251;28;20031;-69
2022/08/30 11:18:44;;;;;;;8.82;6.18;;;;;;;31.52;38.24;98534.44;5084437;28;20086;-69
2022/08/30 11:21:33;;;;;;;10.98;5.30;;;;;;;31.78;39.34;98546.13;5084032;28;20040;-69
2022/08/30 11:24:09;;;;;;;13.13;6.20;;;;;;;31.51;38.72;98538.16;5084107;28;20029;-69
2022/08/30 11:26:44;;;;;;;13.90;6.35;;;;;;;31.46;39.13;98535.09;5084076;28;20024;-69
2022/08/30 11:29:34;;;;;;;9.65;6.25;;;;;;;31.61;38.97;98544.34;5084134;28;20367;-69
2022/08/30 11:32:20;;;;;;;12.75;5.93;;;;;;;31.63;39.07;98536.03;5084166;28;20113;-69
2022/08/30 11:34:46;;;;;;;9.85;5.90;;;;;;;32.21;38.48;98537.75;5084025;28;20028;-69
2022/08/30 11:37:34;;;;;;;10.60;6.20;;;;;;;31.81;38.48;98529.50;5084237;28;20189;-69